Time;durP1;ratioP1;P1;durP2;ratioP2;P2;SDS_P1;SDS_P2;PMS_P1;PMS_P2;Temp;Humidity;BMP_temperature;BMP_pressure;BME280_temperature;BME280_humidity;BME280_pressure;Samples;Min_cycle;Max_cycle;Signal;HPM_P1;HPM_P2
2022/02/21 00:02:47;;;;;;;;;;;17.40;35.80;;;;;;8330236;28;19938;-48
2022/02/21 00:06:47;;;;;;;;;;;17.40;35.80;;;;;;8329895;28;20003;-50
2022/02/21 00:10:48;;;;;;;;;;;17.40;35.90;;;;;;8338501;28;19921;-49
2022/02/21 00:14:48;;;;;;;;;;;17.40;35.80;;;;;;8340746;28;19971;-49
2022/02/21 00:18:49;;;;;;;;;;;17.40;35.90;;;;;;8340557;28;19913;-47
2022/02/21 00:22:49;;;;;;;;;;;17.40;35.80;;;;;;8340298;28;19914;-51
2022/02/21 00:26:50;;;;;;;;;;;17.40;35.90;;;;;;8340622;28;20382;-48
2022/02/21 00:30:50;;;;;;;;;;;17.40;35.80;;;;;;8340421;28;19917;-52
2022/02/21 00:34:51;;;;;;;;;;;17.40;35.80;;;;;;8339996;28;19921;-52
2022/02/21 00:38:51;;;;;;;;;;;17.40;35.90;;;;;;8340368;28;19963;-49
2022/02/21 00:42:52;;;;;;;;;;;17.40;35.90;;;;;;8340962;28;20003;-49
2022/02/21 00:46:52;;;;;;;;;;;17.40;35.90;;;;;;8339821;28;19932;-49
2022/02/21 00:50:52;;;;;;;;;;;17.40;35.90;;;;;;8340403;28;20317;-51
2022/02/21 00:54:53;;;;;;;;;;;17.40;35.90;;;;;;8340138;28;19928;-49
2022/02/21 00:58:53;;;;;;;;;;;17.40;35.90;;;;;;8339490;28;19920;-48
2022/02/21 01:02:54;;;;;;;;;;;17.30;35.80;;;;;;8340268;28;19917;-50
2022/02/21 01:06:55;;;;;;;;;;;17.30;35.90;;;;;;8339916;28;20370;-49
2022/02/21 01:10:56;;;;;;;;;;;17.30;35.90;;;;;;8339499;28;20008;-48
2022/02/21 01:14:56;;;;;;;;;;;17.30;35.90;;;;;;8339848;28;19930;-48
2022/02/21 01:18:57;;;;;;;;;;;17.30;35.90;;;;;;8340330;28;19971;-48
2022/02/21 01:22:57;;;;;;;;;;;17.30;35.90;;;;;;8333303;28;19921;-48
2022/02/21 01:26:57;;;;;;;;;;;17.30;35.90;;;;;;8334717;28;20298;-49
2022/02/21 01:30:58;;;;;;;;;;;17.30;35.90;;;;;;8334387;28;19921;-48
2022/02/21 01:34:58;;;;;;;;;;;17.30;35.90;;;;;;8333968;28;19927;-49
2022/02/21 01:38:59;;;;;;;;;;;17.30;35.90;;;;;;8334470;28;19920;-49
2022/02/21 01:42:59;;;;;;;;;;;17.30;36.00;;;;;;8331985;28;19963;-47
2022/02/21 01:47:00;;;;;;;;;;;17.30;35.90;;;;;;8333412;28;20067;-47
2022/02/21 01:51:00;;;;;;;;;;;17.30;36.00;;;;;;8333639;28;19924;-52
2022/02/21 01:55:03;;;;;;;;;;;17.30;36.00;;;;;;8333709;28;19929;-48
2022/02/21 01:59:04;;;;;;;;;;;17.30;36.10;;;;;;8333245;28;20003;-50
2022/02/21 02:03:04;;;;;;;;;;;17.30;36.00;;;;;;8331531;28;20378;-49
2022/02/21 02:07:05;;;;;;;;;;;17.30;36.10;;;;;;8322368;28;19979;-49
2022/02/21 02:11:06;;;;;;;;;;;17.30;36.20;;;;;;8332684;28;19921;-48
2022/02/21 02:15:10;;;;;;;;;;;17.30;36.20;;;;;;8332857;28;20032;-48
2022/02/21 02:19:10;;;;;;;;;;;17.30;36.30;;;;;;8333108;28;19913;-47
2022/02/21 02:23:11;;;;;;;;;;;17.30;36.30;;;;;;8332376;28;19939;-50
2022/02/21 02:27:12;;;;;;;;;;;17.30;36.30;;;;;;8332386;28;20370;-47
2022/02/21 02:31:13;;;;;;;;;;;17.30;36.40;;;;;;8332392;28;19967;-52
2022/02/21 02:35:13;;;;;;;;;;;17.30;36.40;;;;;;8331936;28;19987;-48
2022/02/21 02:39:14;;;;;;;;;;;17.30;36.50;;;;;;8332532;28;19913;-50
2022/02/21 02:43:15;;;;;;;;;;;17.20;36.40;;;;;;8332368;28;19940;-48
2022/02/21 02:47:15;;;;;;;;;;;17.30;36.60;;;;;;8330106;28;19929;-47
2022/02/21 02:51:16;;;;;;;;;;;17.30;36.50;;;;;;8331977;28;20003;-48
2022/02/21 02:55:17;;;;;;;;;;;17.30;36.50;;;;;;8331806;28;19922;-51
2022/02/21 02:59:17;;;;;;;;;;;17.30;36.50;;;;;;8331277;28;19992;-48
2022/02/21 03:03:18;;;;;;;;;;;17.30;36.50;;;;;;8331648;28;20378;-48
2022/02/21 03:07:18;;;;;;;;;;;17.20;36.50;;;;;;8329812;28;19935;-48
2022/02/21 03:11:19;;;;;;;;;;;17.30;36.50;;;;;;8331241;28;19971;-51
2022/02/21 03:15:19;;;;;;;;;;;17.20;36.50;;;;;;8331002;28;19913;-50
2022/02/21 03:19:19;;;;;;;;;;;17.20;36.50;;;;;;8330886;28;19944;-48
2022/02/21 03:23:20;;;;;;;;;;;17.20;36.50;;;;;;8331037;28;19917;-51
2022/02/21 03:27:20;;;;;;;;;;;17.20;36.50;;;;;;8330743;28;19926;-52
2022/02/21 03:31:21;;;;;;;;;;;17.20;36.50;;;;;;8330339;28;19920;-48
2022/02/21 03:35:21;;;;;;;;;;;17.20;36.50;;;;;;8330878;28;19920;-50
2022/02/21 03:39:22;;;;;;;;;;;17.20;37.00;;;;;;8330723;28;20378;-48
2022/02/21 03:43:22;;;;;;;;;;;17.20;36.50;;;;;;8329427;28;20012;-48
2022/02/21 03:47:23;;;;;;;;;;;17.30;36.50;;;;;;8330157;28;19925;-49
2022/02/21 03:51:23;;;;;;;;;;;17.20;36.50;;;;;;8330170;28;19919;-50
2022/02/21 03:55:23;;;;;;;;;;;17.20;36.50;;;;;;8329863;28;19928;-49
2022/02/21 03:59:24;;;;;;;;;;;17.20;36.50;;;;;;8330243;28;19913;-49
2022/02/21 04:03:24;;;;;;;;;;;17.20;36.50;;;;;;8330137;28;19940;-50
2022/02/21 04:07:25;;;;;;;;;;;17.20;36.50;;;;;;8329561;28;20415;-51
2022/02/21 04:11:25;;;;;;;;;;;17.20;36.40;;;;;;8329899;28;20369;-49
2022/02/21 04:15:26;;;;;;;;;;;17.20;36.50;;;;;;8329846;28;19917;-52
2022/02/21 04:19:27;;;;;;;;;;;17.20;37.00;;;;;;8329648;28;19959;-52
2022/02/21 04:23:27;;;;;;;;;;;17.20;36.50;;;;;;8329570;28;20012;-50
2022/02/21 04:27:27;;;;;;;;;;;17.20;36.50;;;;;;8329758;28;19928;-49
2022/02/21 04:31:28;;;;;;;;;;;17.20;36.40;;;;;;8327726;28;19917;-49
2022/02/21 04:35:28;;;;;;;;;;;17.20;36.50;;;;;;8329564;28;19919;-51
2022/02/21 04:39:29;;;;;;;;;;;17.20;36.50;;;;;;8329803;28;19913;-49
2022/02/21 04:43:29;;;;;;;;;;;17.20;36.50;;;;;;8328850;28;19921;-48
2022/02/21 04:47:30;;;;;;;;;;;17.20;36.50;;;;;;8329444;28;19921;-51
2022/02/21 04:51:30;;;;;;;;;;;17.20;36.50;;;;;;8329335;28;19917;-50
2022/02/21 04:55:31;;;;;;;;;;;17.20;36.50;;;;;;8330485;28;20011;-49
2022/02/21 04:59:31;;;;;;;;;;;17.20;36.50;;;;;;8335472;28;20008;-50
2022/02/21 05:03:32;;;;;;;;;;;17.20;36.50;;;;;;8335394;28;19917;-51
2022/02/21 05:07:32;;;;;;;;;;;17.20;36.50;;;;;;8333688;28;19917;-51
2022/02/21 05:11:32;;;;;;;;;;;17.20;36.60;;;;;;8335217;28;20358;-48
2022/02/21 05:15:33;;;;;;;;;;;17.20;36.60;;;;;;8335143;28;19918;-50
2022/02/21 05:19:33;;;;;;;;;;;17.20;36.60;;;;;;8334584;28;19971;-51
2022/02/21 05:23:34;;;;;;;;;;;17.20;36.60;;;;;;8334730;28;19924;-50
2022/02/21 05:27:35;;;;;;;;;;;17.20;36.60;;;;;;8334698;28;19947;-51
2022/02/21 05:31:35;;;;;;;;;;;17.20;36.70;;;;;;8334092;28;19917;-51
2022/02/21 05:35:36;;;;;;;;;;;17.20;36.70;;;;;;8334843;28;19932;-51
2022/02/21 05:39:36;;;;;;;;;;;17.30;36.70;;;;;;8334237;28;19924;-53
2022/02/21 05:43:37;;;;;;;;;;;17.30;36.70;;;;;;8333662;28;19913;-50
2022/02/21 05:47:37;;;;;;;;;;;17.30;36.70;;;;;;8334269;28;19928;-53
2022/02/21 05:51:38;;;;;;;;;;;17.30;36.70;;;;;;8333967;28;20012;-52
2022/02/21 05:55:39;;;;;;;;;;;17.20;36.60;;;;;;8333788;28;20020;-48
2022/02/21 05:59:39;;;;;;;;;;;17.30;36.60;;;;;;8333648;28;20385;-51
2022/02/21 06:03:42;;;;;;;;;;;17.30;36.60;;;;;;8332773;28;21281;-47
2022/02/21 06:07:42;;;;;;;;;;;17.30;36.60;;;;;;8332652;28;19924;-47
2022/02/21 06:11:43;;;;;;;;;;;17.30;36.50;;;;;;8333646;28;19913;-49
2022/02/21 06:15:43;;;;;;;;;;;17.20;36.40;;;;;;8333437;28;19917;-48
2022/02/21 06:19:44;;;;;;;;;;;17.20;36.40;;;;;;8332760;28;19921;-51
2022/02/21 06:23:44;;;;;;;;;;;17.20;36.40;;;;;;8332789;28;19917;-52
2022/02/21 06:27:45;;;;;;;;;;;17.20;36.40;;;;;;8333027;28;20458;-53
2022/02/21 06:31:45;;;;;;;;;;;17.20;36.40;;;;;;8332348;28;19921;-51
2022/02/21 06:35:46;;;;;;;;;;;17.20;36.50;;;;;;8332665;28;19921;-48
2022/02/21 06:39:46;;;;;;;;;;;17.20;36.40;;;;;;8332595;28;19921;-50
2022/02/21 06:43:47;;;;;;;;;;;17.20;36.40;;;;;;8331936;28;19924;-53
2022/02/21 06:47:47;;;;;;;;;;;17.20;36.40;;;;;;8332323;28;19944;-49
2022/02/21 06:51:48;;;;;;;;;;;17.20;36.40;;;;;;8332131;28;19963;-48
2022/02/21 06:55:48;;;;;;;;;;;17.20;36.40;;;;;;8331619;28;19922;-52
2022/02/21 06:59:49;;;;;;;;;;;17.20;36.40;;;;;;8332146;28;19924;-50
2022/02/21 07:03:50;;;;;;;;;;;17.20;36.30;;;;;;8331462;28;19959;-49
2022/02/21 07:07:51;;;;;;;;;;;17.20;36.40;;;;;;8331311;28;19956;-48
2022/02/21 07:11:51;;;;;;;;;;;17.20;36.40;;;;;;8331828;28;19970;-51
2022/02/21 07:15:52;;;;;;;;;;;17.20;36.40;;;;;;8330197;28;19925;-51
2022/02/21 07:19:54;;;;;;;;;;;17.20;36.30;;;;;;8330051;28;19917;-47
2022/02/21 07:23:54;;;;;;;;;;;17.20;36.30;;;;;;8330995;28;20505;-52
2022/02/21 07:27:55;;;;;;;;;;;17.20;36.30;;;;;;8331197;28;19913;-48
2022/02/21 07:31:55;;;;;;;;;;;17.20;36.30;;;;;;8330347;28;20011;-49
2022/02/21 07:35:56;;;;;;;;;;;17.20;36.30;;;;;;8330952;28;19917;-51
2022/02/21 07:39:56;;;;;;;;;;;17.20;36.30;;;;;;8330549;28;20382;-48
2022/02/21 07:43:57;;;;;;;;;;;17.20;36.30;;;;;;8330371;28;19925;-51
2022/02/21 07:48:00;;;;;;;;;;;17.20;36.30;;;;;;8330825;28;19913;-52
2022/02/21 07:52:01;;;;;;;;;;;17.20;36.30;;;;;;8330466;28;20296;-49
2022/02/21 07:56:01;;;;;;;;;;;17.20;36.30;;;;;;8330298;28;19924;-49
2022/02/21 08:00:02;;;;;;;;;;;17.10;36.30;;;;;;8330125;28;19944;-49
2022/02/21 08:04:03;;;;;;;;;;;17.20;36.30;;;;;;8330222;28;19933;-52
2022/02/21 08:08:04;;;;;;;;;;;17.20;36.30;;;;;;8327753;28;19921;-53
2022/02/21 08:12:07;;;;;;;;;;;17.10;36.20;;;;;;8299191;28;19914;-53
2022/02/21 08:16:07;;;;;;;;;;;17.20;36.30;;;;;;8330210;28;19963;-52
2022/02/21 08:20:08;;;;;;;;;;;17.20;36.30;;;;;;8327808;28;19917;-47
2022/02/21 08:24:09;;;;;;;;;;;17.20;36.20;;;;;;8325313;28;19932;-53
2022/02/21 08:28:09;;;;;;;;;;;17.10;36.20;;;;;;8328803;28;19923;-51
2022/02/21 08:32:12;;;;;;;;;;;17.20;36.20;;;;;;8329725;28;19917;-50
2022/02/21 08:36:13;;;;;;;;;;;17.20;36.20;;;;;;8345036;28;19917;-49
2022/02/21 08:40:15;;;;;;;;;;;17.20;36.20;;;;;;8335981;28;19921;-49
2022/02/21 08:44:15;;;;;;;;;;;17.20;36.10;;;;;;8335352;28;20023;-52
2022/02/21 08:48:16;;;;;;;;;;;17.20;36.10;;;;;;8336170;28;20389;-49
2022/02/21 08:52:17;;;;;;;;;;;17.20;36.10;;;;;;8335428;28;19921;-51
2022/02/21 08:56:18;;;;;;;;;;;17.20;36.10;;;;;;8328088;28;19917;-48
2022/02/21 09:00:18;;;;;;;;;;;17.30;36.20;;;;;;8335391;28;19963;-53
2022/02/21 09:04:19;;;;;;;;;;;17.30;36.10;;;;;;8319557;28;19921;-52
2022/02/21 09:08:19;;;;;;;;;;;17.20;36.10;;;;;;8334791;28;20289;-48
2022/02/21 09:12:20;;;;;;;;;;;17.30;36.20;;;;;;8335194;28;19917;-51
2022/02/21 09:16:20;;;;;;;;;;;17.30;36.10;;;;;;8331118;28;20263;-53
2022/02/21 09:20:21;;;;;;;;;;;17.30;36.10;;;;;;8334943;28;19917;-50
2022/02/21 09:24:21;;;;;;;;;;;17.30;36.10;;;;;;8346302;28;19925;-51
2022/02/21 09:28:22;;;;;;;;;;;17.30;36.10;;;;;;8358827;28;19920;-51
2022/02/21 09:32:23;;;;;;;;;;;17.30;36.10;;;;;;8334926;28;19917;-49
2022/02/21 09:36:24;;;;;;;;;;;17.30;36.10;;;;;;8334556;28;19924;-51
2022/02/21 09:40:24;;;;;;;;;;;17.30;36.10;;;;;;8333355;28;19913;-53
2022/02/21 09:44:24;;;;;;;;;;;17.30;36.10;;;;;;8333968;28;19925;-51
2022/02/21 09:48:26;;;;;;;;;;;17.30;36.10;;;;;;8333810;28;19955;-50
2022/02/21 09:52:27;;;;;;;;;;;17.30;36.00;;;;;;8333484;28;19921;-48
2022/02/21 09:56:27;;;;;;;;;;;17.30;36.50;;;;;;8347714;28;20373;-51
2022/02/21 10:00:28;;;;;;;;;;;17.30;36.00;;;;;;8342560;28;19917;-49
2022/02/21 10:04:28;;;;;;;;;;;17.30;36.00;;;;;;8331358;28;19929;-49
2022/02/21 10:08:29;;;;;;;;;;;17.30;36.00;;;;;;8328058;28;19917;-53
2022/02/21 10:12:30;;;;;;;;;;;17.30;36.00;;;;;;8333532;28;20389;-51
2022/02/21 10:16:37;;;;;;;;;;;17.30;36.50;;;;;;8332704;28;20056;-51
2022/02/21 10:20:54;;;;;;;;;;;17.30;36.00;;;;;;8333140;28;19922;-53
2022/02/21 10:24:54;;;;;;;;;;;17.30;36.00;;;;;;8332942;28;19940;-47
2022/02/21 10:29:04;;;;;;;;;;;17.30;36.00;;;;;;8346536;28;20333;-51
2022/02/21 10:33:10;;;;;;;;;;;17.30;35.90;;;;;;8363299;28;19960;-50
2022/02/21 10:37:11;;;;;;;;;;;17.30;36.00;;;;;;8332955;28;19913;-48
2022/02/21 10:41:11;;;;;;;;;;;17.30;35.90;;;;;;8326897;28;19928;-50
2022/02/21 10:45:13;;;;;;;;;;;17.30;36.00;;;;;;8331338;28;19964;-50
2022/02/21 10:49:14;;;;;;;;;;;17.30;36.00;;;;;;8332168;28;20356;-49
2022/02/21 10:53:14;;;;;;;;;;;17.30;36.00;;;;;;8331502;28;19921;-48
2022/02/21 10:57:18;;;;;;;;;;;17.30;36.00;;;;;;8332318;28;19963;-53
2022/02/21 11:01:18;;;;;;;;;;;17.30;36.00;;;;;;8331729;28;19924;-48
2022/02/21 11:05:19;;;;;;;;;;;17.30;36.00;;;;;;8331325;28;20344;-48
2022/02/21 11:09:20;;;;;;;;;;;17.30;36.00;;;;;;8331031;28;19917;-49
2022/02/21 11:13:21;;;;;;;;;;;17.30;36.00;;;;;;8330979;28;19947;-49
2022/02/21 11:17:21;;;;;;;;;;;17.40;36.10;;;;;;8331790;28;20262;-48
2022/02/21 11:21:23;;;;;;;;;;;17.40;36.10;;;;;;8331187;28;19924;-52
2022/02/21 11:25:26;;;;;;;;;;;17.40;36.00;;;;;;8330795;28;19948;-52
2022/02/21 11:29:34;;;;;;;;;;;17.40;36.10;;;;;;8330932;28;19921;-48
2022/02/21 11:33:54;;;;;;;;;;;17.40;36.10;;;;;;8331090;28;20389;-47
2022/02/21 11:38:00;;;;;;;;;;;17.40;36.00;;;;;;8330815;28;20018;-53
2022/02/21 11:42:02;;;;;;;;;;;17.40;36.00;;;;;;8330702;28;19917;-53
2022/02/21 11:46:07;;;;;;;;;;;17.40;36.00;;;;;;8330423;28;20305;-52
2022/02/21 11:50:17;;;;;;;;;;;17.50;36.00;;;;;;8330024;28;19992;-50
2022/02/21 11:54:20;;;;;;;;;;;17.50;36.00;;;;;;8330406;28;19925;-53
2022/02/21 11:58:23;;;;;;;;;;;17.50;36.00;;;;;;8330067;28;20008;-54
2022/02/21 12:02:24;;;;;;;;;;;17.50;36.00;;;;;;8330531;28;19917;-53
2022/02/21 12:06:25;;;;;;;;;;;17.40;35.90;;;;;;8329679;28;19925;-48
2022/02/21 12:10:25;;;;;;;;;;;17.50;36.00;;;;;;8329612;28;19921;-52
2022/02/21 12:14:26;;;;;;;;;;;17.50;36.00;;;;;;8330141;28;19921;-49
2022/02/21 12:18:26;;;;;;;;;;;17.50;35.90;;;;;;8330145;28;19917;-51
2022/02/21 12:22:28;;;;;;;;;;;17.50;35.90;;;;;;8329539;28;19998;-47
2022/02/21 12:26:28;;;;;;;;;;;17.50;36.00;;;;;;8329760;28;19987;-50
2022/02/21 12:30:39;;;;;;;;;;;17.50;36.00;;;;;;8329790;28;19986;-53
2022/02/21 12:34:39;;;;;;;;;;;17.50;36.00;;;;;;8329292;28;20362;-52
2022/02/21 12:38:40;;;;;;;;;;;17.50;36.10;;;;;;8330026;28;20004;-48
2022/02/21 12:42:40;;;;;;;;;;;17.50;36.10;;;;;;8330026;28;20019;-51
2022/02/21 12:46:43;;;;;;;;;;;17.50;36.10;;;;;;8348872;28;19978;-52
2022/02/21 12:50:43;;;;;;;;;;;17.50;36.10;;;;;;8345714;28;19917;-49
2022/02/21 12:54:54;;;;;;;;;;;17.50;36.10;;;;;;8329472;28;19937;-49
2022/02/21 12:58:54;;;;;;;;;;;17.50;36.20;;;;;;8329002;28;19913;-49
2022/02/21 13:02:55;;;;;;;;;;;17.50;36.10;;;;;;8329696;28;19913;-48
2022/02/21 13:06:57;;;;;;;;;;;17.50;36.20;;;;;;8329074;28;19932;-53
2022/02/21 13:10:59;;;;;;;;;;;17.50;36.20;;;;;;8328828;28;19917;-49
2022/02/21 13:15:00;;;;;;;;;;;17.50;36.20;;;;;;8327154;28;19921;-50
2022/02/21 13:19:04;;;;;;;;;;;17.50;36.30;;;;;;8333336;28;20373;-49
2022/02/21 13:23:05;;;;;;;;;;;17.40;36.20;;;;;;8334659;28;19921;-50
2022/02/21 13:27:19;;;;;;;;;;;17.50;36.30;;;;;;8334899;28;19925;-48
2022/02/21 13:31:20;;;;;;;;;;;17.50;36.30;;;;;;8334322;28;20443;-50
2022/02/21 13:35:20;;;;;;;;;;;17.50;36.30;;;;;;8334696;28;19947;-47
2022/02/21 13:39:21;;;;;;;;;;;17.50;36.30;;;;;;8334335;28;19920;-51
2022/02/21 13:43:23;;;;;;;;;;;17.50;36.30;;;;;;8334108;28;19949;-52
2022/02/21 13:47:30;;;;;;;;;;;17.50;36.30;;;;;;8333963;28;19925;-50
2022/02/21 13:51:31;;;;;;;;;;;17.50;36.30;;;;;;8334097;28;19920;-52
2022/02/21 13:55:33;;;;;;;;;;;17.50;36.30;;;;;;8333378;28;20011;-49
2022/02/21 14:00:00;;;;;;;;;;;17.50;36.30;;;;;;8333897;28;20321;-47
2022/02/21 14:04:06;;;;;;;;;;;17.50;36.30;;;;;;8330689;28;19920;-49
2022/02/21 14:08:07;;;;;;;;;;;17.50;36.30;;;;;;8332773;28;20382;-48
2022/02/21 14:12:11;;;;;;;;;;;17.50;36.30;;;;;;8324238;28;19923;-49
2022/02/21 14:16:12;;;;;;;;;;;17.50;36.30;;;;;;8333887;28;19984;-51
2022/02/21 14:20:12;;;;;;;;;;;17.50;36.30;;;;;;8332643;28;19971;-50
2022/02/21 14:24:13;;;;;;;;;;;17.50;36.30;;;;;;8333305;28;19924;-50
2022/02/21 14:28:13;;;;;;;;;;;17.50;36.30;;;;;;8338855;28;19927;-49
2022/02/21 14:32:14;;;;;;;;;;;17.40;36.20;;;;;;8341482;28;19971;-49
2022/02/21 14:36:16;;;;;;;;;;;17.50;36.20;;;;;;8332722;28;19917;-51
2022/02/21 14:40:16;;;;;;;;;;;17.40;36.20;;;;;;8332427;28;19918;-48
2022/02/21 14:44:17;;;;;;;;;;;17.50;36.30;;;;;;8330779;28;19921;-50
2022/02/21 14:48:18;;;;;;;;;;;17.50;36.30;;;;;;8332425;28;19963;-52
2022/02/21 14:52:18;;;;;;;;;;;17.50;36.30;;;;;;8332039;28;19921;-50
2022/02/21 14:56:19;;;;;;;;;;;17.50;36.30;;;;;;8331509;28;19963;-49
2022/02/21 15:00:19;;;;;;;;;;;17.40;36.30;;;;;;8331645;28;19917;-50
2022/02/21 15:04:19;;;;;;;;;;;17.50;36.30;;;;;;8331364;28;19917;-48
2022/02/21 15:08:20;;;;;;;;;;;17.50;36.30;;;;;;8331708;28;19917;-50
2022/02/21 15:12:20;;;;;;;;;;;17.50;36.30;;;;;;8331247;28;19917;-50
2022/02/21 15:16:21;;;;;;;;;;;17.50;36.30;;;;;;8330563;28;19924;-48
2022/02/21 15:20:23;;;;;;;;;;;17.50;36.30;;;;;;8330797;28;19924;-48
2022/02/21 15:24:24;;;;;;;;;;;17.50;36.30;;;;;;8330855;28;19932;-48
2022/02/21 15:28:24;;;;;;;;;;;17.50;36.30;;;;;;8330201;28;20008;-52
2022/02/21 15:32:24;;;;;;;;;;;17.50;36.80;;;;;;8330789;28;19998;-48
2022/02/21 15:36:25;;;;;;;;;;;17.50;36.30;;;;;;8330687;28;19924;-49
2022/02/21 15:40:26;;;;;;;;;;;17.50;36.30;;;;;;8329021;28;19917;-54
2022/02/21 15:44:26;;;;;;;;;;;17.40;36.30;;;;;;8330584;28;20442;-52
2022/02/21 15:48:27;;;;;;;;;;;17.50;36.30;;;;;;8330302;28;19928;-51
2022/02/21 15:52:28;;;;;;;;;;;17.40;36.30;;;;;;8329852;28;20050;-52
2022/02/21 15:56:28;;;;;;;;;;;17.50;36.40;;;;;;8329943;28;19981;-49
2022/02/21 16:00:29;;;;;;;;;;;17.40;36.30;;;;;;8329924;28;20028;-50
2022/02/21 16:04:29;;;;;;;;;;;17.50;36.30;;;;;;8329575;28;19961;-50
2022/02/21 16:08:29;;;;;;;;;;;17.40;36.30;;;;;;8329799;28;19923;-52
2022/02/21 16:12:30;;;;;;;;;;;17.40;36.40;;;;;;8329876;28;19917;-53
2022/02/21 16:16:31;;;;;;;;;;;17.40;36.40;;;;;;8329299;28;19952;-48
2022/02/21 16:20:31;;;;;;;;;;;17.40;36.40;;;;;;8329446;28;20407;-53
2022/02/21 16:24:31;;;;;;;;;;;17.40;36.40;;;;;;8330116;28;19944;-52
2022/02/21 16:28:32;;;;;;;;;;;17.40;36.40;;;;;;8329378;28;19924;-50
2022/02/21 16:32:35;;;;;;;;;;;17.40;36.40;;;;;;8329917;28;19940;-54
2022/02/21 16:36:36;;;;;;;;;;;17.40;36.40;;;;;;8329493;28;20389;-54
2022/02/21 16:40:36;;;;;;;;;;;17.40;36.50;;;;;;8328770;28;19940;-50
2022/02/21 16:44:37;;;;;;;;;;;17.40;36.40;;;;;;8329489;28;19925;-48
2022/02/21 16:48:37;;;;;;;;;;;17.40;36.40;;;;;;8329382;28;19928;-47
2022/02/21 16:52:38;;;;;;;;;;;17.40;36.40;;;;;;8333790;28;19929;-51
2022/02/21 16:56:39;;;;;;;;;;;17.40;36.50;;;;;;8335830;28;19913;-52
2022/02/21 17:00:39;;;;;;;;;;;17.40;36.40;;;;;;8335516;28;19917;-53
2022/02/21 17:04:40;;;;;;;;;;;17.40;36.50;;;;;;8334856;28;19960;-51
2022/02/21 17:08:40;;;;;;;;;;;17.40;36.50;;;;;;8319431;28;19919;-49
2022/02/21 17:12:41;;;;;;;;;;;17.40;36.40;;;;;;8321099;28;19913;-52
2022/02/21 17:16:41;;;;;;;;;;;17.40;36.40;;;;;;8334809;28;19917;-48
2022/02/21 17:20:44;;;;;;;;;;;17.40;36.50;;;;;;8335256;28;20004;-50
2022/02/21 17:24:45;;;;;;;;;;;17.40;36.50;;;;;;8335086;28;20401;-51
2022/02/21 17:28:45;;;;;;;;;;;17.40;36.40;;;;;;8334396;28;19918;-54
2022/02/21 17:32:46;;;;;;;;;;;17.40;36.40;;;;;;8334621;28;19956;-48
2022/02/21 17:36:46;;;;;;;;;;;17.40;36.50;;;;;;8334629;28;20100;-50
2022/02/21 17:40:47;;;;;;;;;;;17.40;36.50;;;;;;8333620;28;19924;-49
2022/02/21 17:44:47;;;;;;;;;;;17.40;36.50;;;;;;8334345;28;20338;-54
2022/02/21 17:48:47;;;;;;;;;;;17.40;36.40;;;;;;8333679;28;20414;-48
2022/02/21 17:52:48;;;;;;;;;;;17.40;36.50;;;;;;8333343;28;19921;-49
2022/02/21 17:56:50;;;;;;;;;;;17.40;36.50;;;;;;8333873;28;19917;-50
2022/02/21 18:00:50;;;;;;;;;;;17.40;36.50;;;;;;8333995;28;19917;-51
2022/02/21 18:04:51;;;;;;;;;;;17.30;36.50;;;;;;8332638;28;19952;-48
2022/02/21 18:08:51;;;;;;;;;;;17.40;36.50;;;;;;8333533;28;20410;-50
2022/02/21 18:12:52;;;;;;;;;;;17.40;36.50;;;;;;8333741;28;19917;-49
2022/02/21 18:16:52;;;;;;;;;;;17.30;36.50;;;;;;8333081;28;19924;-49
2022/02/21 18:20:53;;;;;;;;;;;17.40;36.50;;;;;;8333501;28;19921;-49
2022/02/21 18:24:54;;;;;;;;;;;17.30;36.50;;;;;;8332978;28;20015;-49
2022/02/21 18:28:56;;;;;;;;;;;17.40;36.50;;;;;;8332423;28;20008;-50
2022/02/21 18:32:57;;;;;;;;;;;17.30;36.50;;;;;;8332950;28;19924;-50
2022/02/21 18:36:57;;;;;;;;;;;17.30;36.50;;;;;;8332618;28;19917;-49
2022/02/21 18:40:58;;;;;;;;;;;17.30;36.50;;;;;;8332407;28;19940;-49
2022/02/21 18:44:58;;;;;;;;;;;17.30;36.50;;;;;;8332119;28;20334;-50
2022/02/21 18:48:58;;;;;;;;;;;17.30;36.50;;;;;;8332110;28;19928;-49
2022/02/21 18:52:59;;;;;;;;;;;17.30;36.50;;;;;;8331495;28;20409;-52
2022/02/21 18:57:00;;;;;;;;;;;17.30;36.50;;;;;;8331913;28;19913;-48
2022/02/21 19:01:00;;;;;;;;;;;17.30;36.50;;;;;;8332015;28;19917;-49
2022/02/21 19:05:01;;;;;;;;;;;17.30;36.60;;;;;;8331572;28;19932;-48
2022/02/21 19:09:02;;;;;;;;;;;17.30;36.50;;;;;;8331932;28;20365;-48
2022/02/21 19:13:03;;;;;;;;;;;17.30;36.60;;;;;;8331339;28;19924;-50
2022/02/21 19:17:04;;;;;;;;;;;17.30;36.50;;;;;;8330392;28;19917;-49
2022/02/21 19:21:04;;;;;;;;;;;17.30;36.60;;;;;;8331896;28;19913;-49
2022/02/21 19:25:05;;;;;;;;;;;17.30;36.60;;;;;;8331072;28;19957;-50
2022/02/21 19:29:05;;;;;;;;;;;17.30;36.60;;;;;;8330596;28;19944;-52
2022/02/21 19:33:06;;;;;;;;;;;17.30;36.60;;;;;;8331212;28;19949;-53
2022/02/21 19:37:06;;;;;;;;;;;17.30;36.60;;;;;;8330733;28;20008;-52
2022/02/21 19:41:07;;;;;;;;;;;17.30;36.70;;;;;;8330500;28;19960;-52
2022/02/21 19:45:08;;;;;;;;;;;17.30;36.70;;;;;;8330628;28;20282;-47
2022/02/21 19:49:09;;;;;;;;;;;17.30;36.70;;;;;;8330645;28;19923;-48
2022/02/21 19:53:09;;;;;;;;;;;17.30;36.70;;;;;;8329917;28;20422;-49
2022/02/21 19:57:10;;;;;;;;;;;17.30;36.70;;;;;;8330279;28;20075;-47
2022/02/21 20:01:10;;;;;;;;;;;17.30;36.70;;;;;;8330794;28;19917;-48
2022/02/21 20:05:11;;;;;;;;;;;17.30;36.70;;;;;;8329759;28;20389;-52
2022/02/21 20:09:11;;;;;;;;;;;17.30;36.70;;;;;;8330075;28;19923;-48
2022/02/21 20:13:12;;;;;;;;;;;17.30;36.70;;;;;;8329257;28;20362;-49
2022/02/21 20:17:12;;;;;;;;;;;17.30;36.70;;;;;;8329491;28;20004;-48
2022/02/21 20:21:13;;;;;;;;;;;17.30;36.70;;;;;;8330262;28;19913;-47
2022/02/21 20:25:13;;;;;;;;;;;17.30;36.80;;;;;;8330913;28;20378;-47
2022/02/21 20:29:14;;;;;;;;;;;17.30;36.80;;;;;;8336204;28;19917;-51
2022/02/21 20:33:14;;;;;;;;;;;17.30;36.80;;;;;;8336415;28;19948;-48
2022/02/21 20:37:15;;;;;;;;;;;17.30;36.80;;;;;;8336245;28;20370;-49
2022/02/21 20:41:16;;;;;;;;;;;17.30;36.80;;;;;;8336286;28;19936;-52
2022/02/21 20:45:17;;;;;;;;;;;17.30;36.90;;;;;;8336144;28;19932;-50
2022/02/21 20:49:17;;;;;;;;;;;17.30;36.80;;;;;;8335853;28;20012;-51
2022/02/21 20:53:18;;;;;;;;;;;17.30;36.90;;;;;;8335443;28;19921;-48
2022/02/21 20:57:18;;;;;;;;;;;17.30;36.90;;;;;;8335788;28;20007;-49
2022/02/21 21:01:19;;;;;;;;;;;17.30;36.90;;;;;;8335493;28;20279;-49
2022/02/21 21:05:19;;;;;;;;;;;17.30;36.90;;;;;;8335611;28;20398;-49
2022/02/21 21:09:20;;;;;;;;;;;17.30;36.90;;;;;;8335720;28;19917;-49
2022/02/21 21:13:20;;;;;;;;;;;17.30;36.90;;;;;;8335092;28;20334;-48
2022/02/21 21:17:21;;;;;;;;;;;17.30;36.90;;;;;;8333664;28;19913;-50
2022/02/21 21:21:21;;;;;;;;;;;17.20;36.80;;;;;;8335322;28;20275;-54
2022/02/21 21:25:22;;;;;;;;;;;17.20;36.80;;;;;;8334451;28;20439;-53
2022/02/21 21:29:22;;;;;;;;;;;17.20;37.30;;;;;;8334786;28;19917;-49
2022/02/21 21:33:24;;;;;;;;;;;17.30;36.80;;;;;;8334954;28;20504;-49
2022/02/21 21:37:24;;;;;;;;;;;17.20;36.80;;;;;;8331761;28;19917;-49
2022/02/21 21:41:25;;;;;;;;;;;17.20;36.80;;;;;;8334848;28;20392;-51
2022/02/21 21:45:25;;;;;;;;;;;17.20;36.80;;;;;;8334777;28;20294;-51
2022/02/21 21:49:26;;;;;;;;;;;17.20;36.80;;;;;;8334085;28;20281;-50
2022/02/21 21:53:26;;;;;;;;;;;17.20;36.80;;;;;;8333949;28;19921;-50
2022/02/21 21:57:27;;;;;;;;;;;17.20;36.80;;;;;;8334296;28;20004;-49
2022/02/21 22:01:27;;;;;;;;;;;17.20;36.80;;;;;;8333680;28;19921;-50
2022/02/21 22:05:27;;;;;;;;;;;17.20;36.80;;;;;;8333879;28;20000;-51
2022/02/21 22:09:28;;;;;;;;;;;17.20;36.80;;;;;;8333502;28;19917;-52
2022/02/21 22:13:28;;;;;;;;;;;17.20;36.80;;;;;;8332994;28;19971;-49
2022/02/21 22:17:29;;;;;;;;;;;17.20;36.80;;;;;;8333724;28;20436;-48
2022/02/21 22:21:29;;;;;;;;;;;17.20;37.20;;;;;;8333567;28;20445;-51
2022/02/21 22:25:30;;;;;;;;;;;17.20;36.80;;;;;;8332640;28;19925;-49
2022/02/21 22:29:30;;;;;;;;;;;17.20;36.80;;;;;;8333015;28;19917;-49
2022/02/21 22:33:31;;;;;;;;;;;17.20;36.80;;;;;;8332835;28;19971;-49
2022/02/21 22:37:32;;;;;;;;;;;17.10;36.80;;;;;;8332435;28;19913;-50
2022/02/21 22:41:32;;;;;;;;;;;17.10;36.80;;;;;;8332631;28;20000;-52
2022/02/21 22:45:33;;;;;;;;;;;17.10;36.80;;;;;;8332544;28;20040;-50
2022/02/21 22:49:33;;;;;;;;;;;17.10;36.80;;;;;;8331631;28;19918;-50
2022/02/21 22:53:34;;;;;;;;;;;17.10;36.80;;;;;;8332488;28;19952;-50
2022/02/21 22:57:36;;;;;;;;;;;17.10;36.80;;;;;;8332711;28;20370;-48
2022/02/21 23:01:37;;;;;;;;;;;17.10;36.80;;;;;;8330874;28;20298;-48
2022/02/21 23:05:37;;;;;;;;;;;17.10;36.80;;;;;;8331746;28;19949;-50
2022/02/21 23:09:38;;;;;;;;;;;17.10;36.80;;;;;;8322490;28;20000;-52
2022/02/21 23:13:38;;;;;;;;;;;17.10;36.80;;;;;;8331194;28;19979;-52
2022/02/21 23:17:38;;;;;;;;;;;17.10;36.80;;;;;;8331976;28;19923;-54
2022/02/21 23:21:39;;;;;;;;;;;17.10;36.80;;;;;;8331452;28;19917;-51